Terminal Aerodrome Forecast
Issued by NWS

Home | Current Version | Previous Version | Text Only | Print | Product List | Glossary On
Versions: 1 2 3 4 5 6 7 8 9 10 11 12 13 14 15 16 17 18 19 20
454
FTUS43 KDLH 150157 AAA
TAFHYR
TAF AMD
KHYR 150157Z 1502/1524 06010KT P6SM -SHRA OVC035
      TEMPO 1502/1504 2SM +RA OVC030
     FM150600 03010KT 5SM -SHRA OVC015
     FM151100 34009KT P6SM OVC015
     FM151500 33008KT P6SM SCT040
     FM152200 28007KT P6SM BKN200=

USA.gov is the U.S. government's official web portal to all federal, state and local government web resources and services.